Linwood, Minnesota
Current Conditions -  °F | °C
As of 4:15 PM on Friday 31 Oct 2014 (Local Time) from KCBG Reporting Station
Clear Clear  
Wind Chill: 39°   Ceiling: Unl
Heat Index: 39°   Visibility: 10mi
Dew Point: 21°   Wind: 0mph
Humidity: 49%   Direction: NA
Pressure: 30.49"   Gusts: NA
Location:  45.3906°N, 93.2311°W
Report Text: KCBG 312115Z AUTO 00000KT 10SM CLR 04/M06 A3049 RMK AO2
Loading
Personal Weather Stations






























Interactive Weather Map
Tropical Storm Tracking
New forecast layout! Learn more

10-Day Weather Forecast

Advertisements
Track Severe Weather on mobile